sensor_id;sensor_type;location;lat;lon;timestamp;pressure;altitude;pressure_sealevel;temperature;humidity
39265;BME280;42646;51.910;7.724;2023-07-16T00:02:14;100312.53;;;20.28;81.06
39265;BME280;42646;51.910;7.724;2023-07-16T00:04:45;100321.47;;;20.29;81.16
39265;BME280;42646;51.910;7.724;2023-07-16T00:07:13;100330.81;;;20.26;81.42
39265;BME280;42646;51.910;7.724;2023-07-16T00:09:43;100323.97;;;20.24;81.73
39265;BME280;42646;51.910;7.724;2023-07-16T00:12:12;100328.53;;;20.23;81.90
39265;BME280;42646;51.910;7.724;2023-07-16T00:14:39;100323.16;;;20.23;81.83
39265;BME280;42646;51.910;7.724;2023-07-16T00:17:08;100317.75;;;20.23;81.80
39265;BME280;42646;51.910;7.724;2023-07-16T00:19:36;100312.56;;;20.22;82.17
39265;BME280;42646;51.910;7.724;2023-07-16T00:22:04;100303.59;;;20.21;82.20
39265;BME280;42646;51.910;7.724;2023-07-16T00:24:32;100305.69;;;20.19;82.62
39265;BME280;42646;51.910;7.724;2023-07-16T00:27:00;100312.13;;;20.18;82.69
39265;BME280;42646;51.910;7.724;2023-07-16T00:29:29;100325.84;;;20.17;82.84
39265;BME280;42646;51.910;7.724;2023-07-16T00:31:56;100325.22;;;20.15;83.00
39265;BME280;42646;51.910;7.724;2023-07-16T00:34:25;100319.19;;;20.13;83.12
39265;BME280;42646;51.910;7.724;2023-07-16T00:36:54;100325.66;;;20.12;83.26
39265;BME280;42646;51.910;7.724;2023-07-16T00:39:27;100334.78;;;20.11;83.50
39265;BME280;42646;51.910;7.724;2023-07-16T00:41:56;100329.38;;;20.11;83.42
39265;BME280;42646;51.910;7.724;2023-07-16T00:44:24;100336.66;;;20.10;83.75
39265;BME280;42646;51.910;7.724;2023-07-16T00:46:52;100339.75;;;20.07;84.13
39265;BME280;42646;51.910;7.724;2023-07-16T00:49:20;100340.81;;;20.06;84.33
39265;BME280;42646;51.910;7.724;2023-07-16T00:51:49;100336.47;;;20.05;84.49
39265;BME280;42646;51.910;7.724;2023-07-16T00:54:19;100338.50;;;20.03;84.66
39265;BME280;42646;51.910;7.724;2023-07-16T00:56:53;100343.09;;;20.02;84.84
39265;BME280;42646;51.910;7.724;2023-07-16T00:59:21;100344.94;;;20.02;84.94
39265;BME280;42646;51.910;7.724;2023-07-16T01:01:49;100351.41;;;20.01;84.67
39265;BME280;42646;51.910;7.724;2023-07-16T01:04:17;100347.03;;;20.00;85.17
39265;BME280;42646;51.910;7.724;2023-07-16T01:06:50;100337.28;;;19.99;84.89
39265;BME280;42646;51.910;7.724;2023-07-16T01:09:20;100342.03;;;19.97;84.83
39265;BME280;42646;51.910;7.724;2023-07-16T01:11:53;100345.16;;;19.94;84.72
39265;BME280;42646;51.910;7.724;2023-07-16T01:14:21;100345.56;;;19.91;84.79
39265;BME280;42646;51.910;7.724;2023-07-16T01:16:54;100342.25;;;19.89;84.92
39265;BME280;42646;51.910;7.724;2023-07-16T01:19:25;100347.22;;;19.85;84.83
39265;BME280;42646;51.910;7.724;2023-07-16T01:22:07;100345.16;;;19.81;85.44
39265;BME280;42646;51.910;7.724;2023-07-16T01:25:00;100348.47;;;19.76;85.84
39265;BME280;42646;51.910;7.724;2023-07-16T01:27:58;100350.97;;;19.71;85.79
39265;BME280;42646;51.910;7.724;2023-07-16T01:30:30;100352.59;;;19.65;85.74
39265;BME280;42646;51.910;7.724;2023-07-16T01:33:00;100358.81;;;19.59;85.60
39265;BME280;42646;51.910;7.724;2023-07-16T01:35:29;100355.88;;;19.54;85.70
39265;BME280;42646;51.910;7.724;2023-07-16T01:37:58;100356.47;;;19.49;86.66
39265;BME280;42646;51.910;7.724;2023-07-16T01:40:27;100359.16;;;19.43;87.05
39265;BME280;42646;51.910;7.724;2023-07-16T01:42:54;100363.50;;;19.37;87.43
39265;BME280;42646;51.910;7.724;2023-07-16T01:45:22;100362.44;;;19.32;87.79
39265;BME280;42646;51.910;7.724;2023-07-16T01:47:59;100364.09;;;19.26;87.74
39265;BME280;42646;51.910;7.724;2023-07-16T01:50:28;100359.31;;;19.21;87.81
39265;BME280;42646;51.910;7.724;2023-07-16T01:53:23;100364.28;;;19.18;87.84
39265;BME280;42646;51.910;7.724;2023-07-16T01:55:50;100354.91;;;19.14;88.24
39265;BME280;42646;51.910;7.724;2023-07-16T01:58:22;100346.41;;;19.10;88.79
39265;BME280;42646;51.910;7.724;2023-07-16T02:00:50;100353.03;;;19.08;88.89
39265;BME280;42646;51.910;7.724;2023-07-16T02:03:19;100364.03;;;19.06;89.23
39265;BME280;42646;51.910;7.724;2023-07-16T02:05:49;100361.53;;;19.05;89.40
39265;BME280;42646;51.910;7.724;2023-07-16T02:08:17;100360.06;;;19.02;89.74
39265;BME280;42646;51.910;7.724;2023-07-16T02:10:47;100368.34;;;19.01;89.64
39265;BME280;42646;51.910;7.724;2023-07-16T02:13:15;100368.56;;;18.99;89.67
39265;BME280;42646;51.910;7.724;2023-07-16T02:15:43;100360.03;;;18.95;89.61
39265;BME280;42646;51.910;7.724;2023-07-16T02:18:14;100371.84;;;18.94;90.09
39265;BME280;42646;51.910;7.724;2023-07-16T02:20:44;100385.75;;;18.91;90.26
39265;BME280;42646;51.910;7.724;2023-07-16T02:23:20;100380.72;;;18.88;90.71
39265;BME280;42646;51.910;7.724;2023-07-16T02:25:53;100390.25;;;18.84;91.13
39265;BME280;42646;51.910;7.724;2023-07-16T02:28:21;100388.78;;;18.82;91.25
39265;BME280;42646;51.910;7.724;2023-07-16T02:30:49;100399.13;;;18.78;91.09
39265;BME280;42646;51.910;7.724;2023-07-16T02:33:21;100408.44;;;18.76;91.27
39265;BME280;42646;51.910;7.724;2023-07-16T02:35:53;100410.69;;;18.72;91.18
39265;BME280;42646;51.910;7.724;2023-07-16T02:38:22;100413.78;;;18.69;91.39
39265;BME280;42646;51.910;7.724;2023-07-16T02:40:54;100414.13;;;18.66;91.50
39265;BME280;42646;51.910;7.724;2023-07-16T02:43:21;100417.41;;;18.61;91.58
39265;BME280;42646;51.910;7.724;2023-07-16T02:45:50;100415.13;;;18.58;92.00
39265;BME280;42646;51.910;7.724;2023-07-16T02:48:18;100420.72;;;18.57;92.26
39265;BME280;42646;51.910;7.724;2023-07-16T02:50:47;100418.41;;;18.54;93.03
39265;BME280;42646;51.910;7.724;2023-07-16T02:53:16;100420.06;;;18.55;92.89
39265;BME280;42646;51.910;7.724;2023-07-16T02:55:45;100425.88;;;18.52;93.10
39265;BME280;42646;51.910;7.724;2023-07-16T02:58:13;100418.59;;;18.52;92.88
39265;BME280;42646;51.910;7.724;2023-07-16T03:01:05;100414.44;;;18.50;93.64
39265;BME280;42646;51.910;7.724;2023-07-16T03:03:34;100406.97;;;18.45;94.16
39265;BME280;42646;51.910;7.724;2023-07-16T03:06:02;100413.75;;;18.41;94.60
39265;BME280;42646;51.910;7.724;2023-07-16T03:08:32;100416.19;;;18.36;94.42
39265;BME280;42646;51.910;7.724;2023-07-16T03:11:23;100411.22;;;18.33;94.62
39265;BME280;42646;51.910;7.724;2023-07-16T03:13:52;100417.19;;;18.28;95.07
39265;BME280;42646;51.910;7.724;2023-07-16T03:16:22;100418.59;;;18.24;95.77
39265;BME280;42646;51.910;7.724;2023-07-16T03:18:52;100431.41;;;18.22;96.47
39265;BME280;42646;51.910;7.724;2023-07-16T03:21:20;100429.94;;;18.20;96.61
39265;BME280;42646;51.910;7.724;2023-07-16T03:23:52;100421.44;;;18.16;97.29
39265;BME280;42646;51.910;7.724;2023-07-16T03:26:19;100428.66;;;18.15;97.75
39265;BME280;42646;51.910;7.724;2023-07-16T03:29:12;100425.31;;;18.13;97.73
39265;BME280;42646;51.910;7.724;2023-07-16T03:31:39;100423.03;;;18.10;98.25
39265;BME280;42646;51.910;7.724;2023-07-16T03:34:09;100423.03;;;18.10;98.47
39265;BME280;42646;51.910;7.724;2023-07-16T03:36:37;100432.13;;;18.09;99.06
39265;BME280;42646;51.910;7.724;2023-07-16T03:39:06;100436.03;;;18.07;98.98
39265;BME280;42646;51.910;7.724;2023-07-16T03:41:34;100431.47;;;18.07;99.04
39265;BME280;42646;51.910;7.724;2023-07-16T03:44:03;100437.06;;;18.06;99.55
39265;BME280;42646;51.910;7.724;2023-07-16T03:46:34;100444.50;;;18.04;100.00
39265;BME280;42646;51.910;7.724;2023-07-16T03:49:03;100448.22;;;18.03;100.00
39265;BME280;42646;51.910;7.724;2023-07-16T03:51:35;100449.22;;;18.02;99.77
39265;BME280;42646;51.910;7.724;2023-07-16T03:54:05;100451.28;;;18.00;100.00
39265;BME280;42646;51.910;7.724;2023-07-16T03:56:34;100456.88;;;17.98;100.00
39265;BME280;42646;51.910;7.724;2023-07-16T03:59:02;100457.06;;;17.97;100.00
39265;BME280;42646;51.910;7.724;2023-07-16T04:01:30;100454.38;;;17.97;100.00
39265;BME280;42646;51.910;7.724;2023-07-16T04:03:59;100451.50;;;17.98;100.00
39265;BME280;42646;51.910;7.724;2023-07-16T04:06:52;100462.47;;;17.97;100.00
39265;BME280;42646;51.910;7.724;2023-07-16T04:09:22;100462.47;;;17.97;100.00
39265;BME280;42646;51.910;7.724;2023-07-16T04:11:50;100470.69;;;17.95;100.00
39265;BME280;42646;51.910;7.724;2023-07-16T04:14:19;100474.22;;;17.96;100.00
39265;BME280;42646;51.910;7.724;2023-07-16T04:16:48;100471.53;;;17.96;100.00
39265;BME280;42646;51.910;7.724;2023-07-16T04:19:16;100472.34;;;17.96;100.00
39265;BME280;42646;51.910;7.724;2023-07-16T04:21:43;100473.84;;;17.99;100.00
39265;BME280;42646;51.910;7.724;2023-07-16T04:24:12;100479.25;;;17.99;100.00
39265;BME280;42646;51.910;7.724;2023-07-16T04:26:42;100469.66;;;17.96;100.00
39265;BME280;42646;51.910;7.724;2023-07-16T04:29:11;100478.28;;;18.06;100.00
39265;BME280;42646;51.910;7.724;2023-07-16T04:31:38;100472.47;;;18.03;100.00
39265;BME280;42646;51.910;7.724;2023-07-16T04:34:11;100477.63;;;18.04;100.00
39265;BME280;42646;51.910;7.724;2023-07-16T04:36:39;100489.88;;;18.07;100.00
39265;BME280;42646;51.910;7.724;2023-07-16T04:39:06;100487.19;;;18.07;100.00
39265;BME280;42646;51.910;7.724;2023-07-16T04:41:35;100491.38;;;18.09;100.00
39265;BME280;42646;51.910;7.724;2023-07-16T04:44:04;100497.38;;;18.11;100.00
39265;BME280;42646;51.910;7.724;2023-07-16T04:46:35;100496.63;;;18.18;99.84
39265;BME280;42646;51.910;7.724;2023-07-16T04:49:04;100496.81;;;18.16;99.93
39265;BME280;42646;51.910;7.724;2023-07-16T04:51:32;100493.94;;;18.18;99.42
39265;BME280;42646;51.910;7.724;2023-07-16T04:54:00;100502.63;;;18.20;99.33
39265;BME280;42646;51.910;7.724;2023-07-16T04:56:31;100511.38;;;18.22;98.85
39265;BME280;42646;51.910;7.724;2023-07-16T04:58:58;100510.22;;;18.31;97.68
39265;BME280;42646;51.910;7.724;2023-07-16T05:01:28;100505.22;;;18.28;96.43
39265;BME280;42646;51.910;7.724;2023-07-16T05:03:56;100505.84;;;18.30;95.96
39265;BME280;42646;51.910;7.724;2023-07-16T05:06:24;100518.28;;;18.31;94.27
39265;BME280;42646;51.910;7.724;2023-07-16T05:08:52;100517.44;;;18.30;93.16
39265;BME280;42646;51.910;7.724;2023-07-16T05:11:45;100519.56;;;18.35;90.76
39265;BME280;42646;51.910;7.724;2023-07-16T05:14:13;100527.91;;;18.40;87.76
39265;BME280;42646;51.910;7.724;2023-07-16T05:16:42;100529.13;;;18.37;87.79
39265;BME280;42646;51.910;7.724;2023-07-16T05:19:14;100526.25;;;18.39;87.84
39265;BME280;42646;51.910;7.724;2023-07-16T05:21:42;100532.28;;;18.41;86.60
39265;BME280;42646;51.910;7.724;2023-07-16T05:24:10;100527.91;;;18.40;85.72
39265;BME280;42646;51.910;7.724;2023-07-16T05:26:37;100546.22;;;18.45;83.53
39265;BME280;42646;51.910;7.724;2023-07-16T05:29:06;100536.63;;;18.42;82.39
39265;BME280;42646;51.910;7.724;2023-07-16T05:31:33;100544.50;;;18.43;82.03
39265;BME280;42646;51.910;7.724;2023-07-16T05:34:09;100542.91;;;18.49;80.47
39265;BME280;42646;51.910;7.724;2023-07-16T05:36:37;100547.47;;;18.49;80.08
39265;BME280;42646;51.910;7.724;2023-07-16T05:39:09;100554.22;;;18.59;78.57
39265;BME280;42646;51.910;7.724;2023-07-16T05:41:38;100555.44;;;18.57;78.44
39265;BME280;42646;51.910;7.724;2023-07-16T05:44:07;100570.16;;;18.61;78.17
39265;BME280;42646;51.910;7.724;2023-07-16T05:46:35;100568.13;;;18.63;77.47
39265;BME280;42646;51.910;7.724;2023-07-16T05:49:05;100563.03;;;18.68;75.77
39265;BME280;42646;51.910;7.724;2023-07-16T05:51:34;100571.81;;;18.77;73.92
39265;BME280;42646;51.910;7.724;2023-07-16T05:54:02;100566.78;;;18.74;73.49
39265;BME280;42646;51.910;7.724;2023-07-16T05:56:30;100574.56;;;18.83;73.26
39265;BME280;42646;51.910;7.724;2023-07-16T05:58:57;100569.78;;;18.85;72.87
39265;BME280;42646;51.910;7.724;2023-07-16T06:01:26;100572.13;;;18.88;73.15
39265;BME280;42646;51.910;7.724;2023-07-16T06:03:54;100575.28;;;18.92;73.06
39265;BME280;42646;51.910;7.724;2023-07-16T06:06:22;100575.75;;;19.02;72.57
39265;BME280;42646;51.910;7.724;2023-07-16T06:08:52;100577.25;;;19.05;72.85
39265;BME280;42646;51.910;7.724;2023-07-16T06:11:20;100586.41;;;19.10;73.20
39265;BME280;42646;51.910;7.724;2023-07-16T06:13:48;100577.97;;;19.20;73.26
39265;BME280;42646;51.910;7.724;2023-07-16T06:16:40;100586.78;;;19.35;72.36
39265;BME280;42646;51.910;7.724;2023-07-16T06:19:08;100595.56;;;19.44;70.86
39265;BME280;42646;51.910;7.724;2023-07-16T06:21:36;100584.16;;;19.48;70.63
39265;BME280;42646;51.910;7.724;2023-07-16T06:24:06;100596.25;;;19.53;70.66
39265;BME280;42646;51.910;7.724;2023-07-16T06:26:35;100591.16;;;19.64;69.21
39265;BME280;42646;51.910;7.724;2023-07-16T06:29:03;100595.31;;;19.67;68.92
39265;BME280;42646;51.910;7.724;2023-07-16T06:31:31;100612.16;;;19.69;69.03
39265;BME280;42646;51.910;7.724;2023-07-16T06:33:59;100593.47;;;19.74;68.47
39265;BME280;42646;51.910;7.724;2023-07-16T06:36:28;100604.13;;;19.82;68.03
39265;BME280;42646;51.910;7.724;2023-07-16T06:38:55;100604.16;;;19.89;66.54
39265;BME280;42646;51.910;7.724;2023-07-16T06:41:24;100611.84;;;19.92;66.56
39265;BME280;42646;51.910;7.724;2023-07-16T06:43:52;100615.63;;;20.04;65.35
39265;BME280;42646;51.910;7.724;2023-07-16T06:46:45;100605.28;;;20.08;65.80
39265;BME280;42646;51.910;7.724;2023-07-16T06:49:13;100621.28;;;20.16;66.39
39265;BME280;42646;51.910;7.724;2023-07-16T06:51:41;100615.31;;;20.27;66.04
39265;BME280;42646;51.910;7.724;2023-07-16T06:54:08;100618.03;;;20.34;65.97
39265;BME280;42646;51.910;7.724;2023-07-16T06:56:37;100628.09;;;20.46;64.52
39265;BME280;42646;51.910;7.724;2023-07-16T06:59:05;100623.06;;;20.43;65.14
39265;BME280;42646;51.910;7.724;2023-07-16T07:01:33;100623.06;;;20.43;64.60
39265;BME280;42646;51.910;7.724;2023-07-16T07:04:02;100617.28;;;20.46;65.10
39265;BME280;42646;51.910;7.724;2023-07-16T07:06:34;100630.00;;;20.52;64.71
39265;BME280;42646;51.910;7.724;2023-07-16T07:09:01;100633.94;;;20.57;64.63
39265;BME280;42646;51.910;7.724;2023-07-16T07:11:31;100638.34;;;20.64;64.14
39265;BME280;42646;51.910;7.724;2023-07-16T07:14:00;100639.78;;;20.67;64.43
39265;BME280;42646;51.910;7.724;2023-07-16T07:16:28;100643.53;;;20.79;64.15
39265;BME280;42646;51.910;7.724;2023-07-16T07:18:56;100630.03;;;20.92;62.83
39265;BME280;42646;51.910;7.724;2023-07-16T07:21:24;100629.63;;;21.02;62.81
39265;BME280;42646;51.910;7.724;2023-07-16T07:23:53;100643.38;;;21.14;62.84
39265;BME280;42646;51.910;7.724;2023-07-16T07:26:20;100645.69;;;21.23;62.29
39265;BME280;42646;51.910;7.724;2023-07-16T07:28:48;100641.53;;;21.34;61.39
39265;BME280;42646;51.910;7.724;2023-07-16T07:31:18;100640.28;;;21.37;60.94
39265;BME280;42646;51.910;7.724;2023-07-16T07:33:47;100634.25;;;21.48;59.98
39265;BME280;42646;51.910;7.724;2023-07-16T07:36:15;100635.44;;;21.72;59.19
39265;BME280;42646;51.910;7.724;2023-07-16T07:38:47;100645.66;;;21.76;57.94
39265;BME280;42646;51.910;7.724;2023-07-16T07:41:14;100643.97;;;21.75;58.83
39265;BME280;42646;51.910;7.724;2023-07-16T07:43:42;100641.44;;;21.80;58.13
39265;BME280;42646;51.910;7.724;2023-07-16T07:46:11;100631.66;;;21.86;58.02
39265;BME280;42646;51.910;7.724;2023-07-16T07:48:41;100631.41;;;21.87;57.88
39265;BME280;42646;51.910;7.724;2023-07-16T07:51:08;100634.13;;;21.94;58.23
39265;BME280;42646;51.910;7.724;2023-07-16T07:53:36;100637.84;;;22.06;58.15
39265;BME280;42646;51.910;7.724;2023-07-16T07:56:04;100638.03;;;22.18;57.20
39265;BME280;42646;51.910;7.724;2023-07-16T07:58:33;100634.66;;;22.23;57.34
39265;BME280;42646;51.910;7.724;2023-07-16T08:01:04;100637.56;;;22.28;56.77
39265;BME280;42646;51.910;7.724;2023-07-16T08:03:32;100644.88;;;22.27;57.31
39265;BME280;42646;51.910;7.724;2023-07-16T08:06:02;100651.09;;;22.34;56.98
39265;BME280;42646;51.910;7.724;2023-07-16T08:08:32;100653.16;;;22.39;56.74
39265;BME280;42646;51.910;7.724;2023-07-16T08:11:00;100649.97;;;22.49;54.98
39265;BME280;42646;51.910;7.724;2023-07-16T08:13:28;100650.41;;;22.46;54.81
39265;BME280;42646;51.910;7.724;2023-07-16T08:15:56;100654.16;;;22.45;54.87
39265;BME280;42646;51.910;7.724;2023-07-16T08:18:24;100655.63;;;22.40;54.75
39265;BME280;42646;51.910;7.724;2023-07-16T08:20:52;100661.47;;;22.44;53.77
39265;BME280;42646;51.910;7.724;2023-07-16T08:23:21;100668.31;;;22.47;54.02
39265;BME280;42646;51.910;7.724;2023-07-16T08:25:51;100666.63;;;22.52;53.92
39265;BME280;42646;51.910;7.724;2023-07-16T08:28:19;100660.59;;;22.50;54.88
39265;BME280;42646;51.910;7.724;2023-07-16T08:30:47;100651.19;;;22.59;54.71
39265;BME280;42646;51.910;7.724;2023-07-16T08:33:17;100668.25;;;22.66;55.39
39265;BME280;42646;51.910;7.724;2023-07-16T08:35:45;100656.47;;;22.79;54.98
39265;BME280;42646;51.910;7.724;2023-07-16T08:38:12;100665.41;;;22.86;55.27
39265;BME280;42646;51.910;7.724;2023-07-16T08:40:42;100668.94;;;22.93;55.05
39265;BME280;42646;51.910;7.724;2023-07-16T08:43:15;100669.72;;;23.01;54.97
39265;BME280;42646;51.910;7.724;2023-07-16T08:45:44;100668.41;;;23.10;54.21
39265;BME280;42646;51.910;7.724;2023-07-16T08:48:12;100666.69;;;23.15;53.81
39265;BME280;42646;51.910;7.724;2023-07-16T08:50:41;100664.38;;;23.19;52.96
39265;BME280;42646;51.910;7.724;2023-07-16T08:53:09;100674.59;;;23.17;52.65
39265;BME280;42646;51.910;7.724;2023-07-16T08:55:37;100672.50;;;23.19;52.89
39265;BME280;42646;51.910;7.724;2023-07-16T08:58:07;100665.63;;;23.16;52.48
39265;BME280;42646;51.910;7.724;2023-07-16T09:00:35;100669.16;;;23.17;52.36
39265;BME280;42646;51.910;7.724;2023-07-16T09:03:03;100678.94;;;23.25;53.02
39265;BME280;42646;51.910;7.724;2023-07-16T09:05:32;100673.56;;;23.43;52.47
39265;BME280;42646;51.910;7.724;2023-07-16T09:08:06;100679.53;;;23.52;51.53
39265;BME280;42646;51.910;7.724;2023-07-16T09:10:34;100682.81;;;23.60;51.10
39265;BME280;42646;51.910;7.724;2023-07-16T09:13:02;100676.28;;;23.68;51.71
39265;BME280;42646;51.910;7.724;2023-07-16T09:15:32;100691.47;;;23.76;51.56
39265;BME280;42646;51.910;7.724;2023-07-16T09:18:01;100684.53;;;23.80;51.52
39265;BME280;42646;51.910;7.724;2023-07-16T09:20:29;100684.28;;;23.81;51.36
39265;BME280;42646;51.910;7.724;2023-07-16T09:22:58;100684.06;;;23.83;50.84
39265;BME280;42646;51.910;7.724;2023-07-16T09:25:27;100688.31;;;23.79;49.89
39265;BME280;42646;51.910;7.724;2023-07-16T09:27:57;100691.09;;;23.72;51.26
39265;BME280;42646;51.910;7.724;2023-07-16T09:30:30;100690.41;;;23.77;50.85
39265;BME280;42646;51.910;7.724;2023-07-16T09:33:09;100685.53;;;23.85;50.79
39265;BME280;42646;51.910;7.724;2023-07-16T09:35:37;100685.69;;;23.90;49.96
39265;BME280;42646;51.910;7.724;2023-07-16T09:38:09;100687.34;;;23.91;50.58
39265;BME280;42646;51.910;7.724;2023-07-16T09:40:38;100699.03;;;23.92;51.18
39265;BME280;42646;51.910;7.724;2023-07-16T09:43:10;100702.34;;;23.94;50.60
39265;BME280;42646;51.910;7.724;2023-07-16T09:45:38;100693.13;;;23.95;50.67
39265;BME280;42646;51.910;7.724;2023-07-16T09:48:07;100694.81;;;23.96;48.91
39265;BME280;42646;51.910;7.724;2023-07-16T09:50:36;100704.31;;;23.87;50.30
39265;BME280;42646;51.910;7.724;2023-07-16T09:53:06;100717.59;;;23.95;49.47
39265;BME280;42646;51.910;7.724;2023-07-16T09:55:35;100709.34;;;23.83;49.66
39265;BME280;42646;51.910;7.724;2023-07-16T09:58:07;100713.59;;;23.79;50.05
39265;BME280;42646;51.910;7.724;2023-07-16T10:00:37;100706.03;;;23.81;49.98
39265;BME280;42646;51.910;7.724;2023-07-16T10:03:08;100715.84;;;23.82;50.93
39265;BME280;42646;51.910;7.724;2023-07-16T10:05:37;100706.34;;;23.91;49.46
39265;BME280;42646;51.910;7.724;2023-07-16T10:08:16;100714.94;;;23.88;49.32
39265;BME280;42646;51.910;7.724;2023-07-16T10:10:45;100707.91;;;23.81;49.75
39265;BME280;42646;51.910;7.724;2023-07-16T10:13:16;100726.94;;;23.81;49.28
39265;BME280;42646;51.910;7.724;2023-07-16T10:15:54;100723.28;;;23.68;49.55
39265;BME280;42646;51.910;7.724;2023-07-16T10:18:26;100723.53;;;23.67;49.50
39265;BME280;42646;51.910;7.724;2023-07-16T10:21:01;100713.25;;;23.69;50.72
39265;BME280;42646;51.910;7.724;2023-07-16T10:23:39;100714.66;;;23.78;50.53
39265;BME280;42646;51.910;7.724;2023-07-16T10:26:09;100728.38;;;23.83;50.74
39265;BME280;42646;51.910;7.724;2023-07-16T10:28:40;100733.38;;;23.86;50.41
39265;BME280;42646;51.910;7.724;2023-07-16T10:31:17;100738.31;;;23.96;48.47
39265;BME280;42646;51.910;7.724;2023-07-16T10:33:58;100738.97;;;23.91;48.39
39265;BME280;42646;51.910;7.724;2023-07-16T10:36:27;100734.13;;;23.93;48.59
39265;BME280;42646;51.910;7.724;2023-07-16T10:39:00;100734.28;;;23.98;48.23
39265;BME280;42646;51.910;7.724;2023-07-16T10:41:30;100730.75;;;23.98;48.50
39265;BME280;42646;51.910;7.724;2023-07-16T10:43:58;100731.97;;;24.02;48.81
39265;BME280;42646;51.910;7.724;2023-07-16T10:46:31;100732.56;;;24.04;48.37
39265;BME280;42646;51.910;7.724;2023-07-16T10:49:02;100742.84;;;24.02;48.01
39265;BME280;42646;51.910;7.724;2023-07-16T10:51:29;100744.94;;;24.00;47.70
39265;BME280;42646;51.910;7.724;2023-07-16T10:53:58;100741.38;;;23.99;47.57
39265;BME280;42646;51.910;7.724;2023-07-16T10:56:28;100746.59;;;24.01;48.29
39265;BME280;42646;51.910;7.724;2023-07-16T10:58:56;100745.66;;;24.14;49.75
39265;BME280;42646;51.910;7.724;2023-07-16T11:01:25;100751.53;;;24.29;49.11
39265;BME280;42646;51.910;7.724;2023-07-16T11:03:53;100751.28;;;24.37;47.87
39265;BME280;42646;51.910;7.724;2023-07-16T11:06:22;100757.47;;;24.44;46.98
39265;BME280;42646;51.910;7.724;2023-07-16T11:08:50;100751.34;;;24.49;47.71
39265;BME280;42646;51.910;7.724;2023-07-16T11:11:28;100747.00;;;24.60;47.31
39265;BME280;42646;51.910;7.724;2023-07-16T11:13:57;100749.03;;;24.64;46.75
39265;BME280;42646;51.910;7.724;2023-07-16T11:16:25;100750.84;;;24.70;46.83
39265;BME280;42646;51.910;7.724;2023-07-16T11:18:54;100768.25;;;24.69;47.45
39265;BME280;42646;51.910;7.724;2023-07-16T11:21:23;100755.84;;;24.73;47.01
39265;BME280;42646;51.910;7.724;2023-07-16T11:23:52;100754.50;;;24.64;46.23
39265;BME280;42646;51.910;7.724;2023-07-16T11:26:20;100770.06;;;24.57;46.56
39265;BME280;42646;51.910;7.724;2023-07-16T11:28:50;100765.78;;;24.49;47.15
39265;BME280;42646;51.910;7.724;2023-07-16T11:31:18;100761.84;;;24.45;46.80
39265;BME280;42646;51.910;7.724;2023-07-16T11:33:50;100761.28;;;24.37;46.15
39265;BME280;42646;51.910;7.724;2023-07-16T11:36:17;100775.25;;;24.22;46.55
39265;BME280;42646;51.910;7.724;2023-07-16T11:38:48;100773.03;;;24.12;46.76
39265;BME280;42646;51.910;7.724;2023-07-16T11:41:20;100774.16;;;24.05;47.49
39265;BME280;42646;51.910;7.724;2023-07-16T11:43:47;100788.22;;;24.02;47.21
39265;BME280;42646;51.910;7.724;2023-07-16T11:46:16;100779.25;;;23.94;46.76
39265;BME280;42646;51.910;7.724;2023-07-16T11:48:45;100785.75;;;23.93;47.61
39265;BME280;42646;51.910;7.724;2023-07-16T11:51:13;100777.25;;;23.90;48.19
39265;BME280;42646;51.910;7.724;2023-07-16T11:53:41;100783.34;;;23.85;47.11
39265;BME280;42646;51.910;7.724;2023-07-16T11:56:11;100780.44;;;23.80;47.09
39265;BME280;42646;51.910;7.724;2023-07-16T11:58:39;100792.81;;;23.76;47.43
39265;BME280;42646;51.910;7.724;2023-07-16T12:01:09;100793.47;;;23.71;47.62
39265;BME280;42646;51.910;7.724;2023-07-16T12:03:37;100790.97;;;23.70;48.47
39265;BME280;42646;51.910;7.724;2023-07-16T12:06:05;100789.50;;;23.74;48.46
39265;BME280;42646;51.910;7.724;2023-07-16T12:08:33;100794.31;;;23.72;48.34
39265;BME280;42646;51.910;7.724;2023-07-16T12:11:00;100787.53;;;23.81;48.45
39265;BME280;42646;51.910;7.724;2023-07-16T12:13:30;100787.72;;;23.86;47.56
39265;BME280;42646;51.910;7.724;2023-07-16T12:15:58;100792.50;;;23.91;47.00
39265;BME280;42646;51.910;7.724;2023-07-16T12:18:26;100789.13;;;23.89;46.75
39265;BME280;42646;51.910;7.724;2023-07-16T12:20:54;100793.56;;;23.83;47.43
39265;BME280;42646;51.910;7.724;2023-07-16T12:23:22;100805.69;;;23.87;47.17
39265;BME280;42646;51.910;7.724;2023-07-16T12:25:50;100797.53;;;23.87;46.85
39265;BME280;42646;51.910;7.724;2023-07-16T12:28:19;100798.41;;;23.81;46.83
39265;BME280;42646;51.910;7.724;2023-07-16T12:30:48;100796.53;;;23.82;48.05
39265;BME280;42646;51.910;7.724;2023-07-16T12:33:15;100805.31;;;23.84;47.85
39265;BME280;42646;51.910;7.724;2023-07-16T12:35:43;100798.81;;;23.85;48.17
39265;BME280;42646;51.910;7.724;2023-07-16T12:38:11;100791.66;;;23.90;48.90
39265;BME280;42646;51.910;7.724;2023-07-16T12:40:40;100794.50;;;23.95;48.29
39265;BME280;42646;51.910;7.724;2023-07-16T12:43:08;100793.41;;;24.03;47.32
39265;BME280;42646;51.910;7.724;2023-07-16T12:45:36;100795.06;;;24.04;47.60
39265;BME280;42646;51.910;7.724;2023-07-16T12:48:05;100795.31;;;24.03;48.32
39265;BME280;42646;51.910;7.724;2023-07-16T12:50:35;100804.88;;;24.05;48.39
39265;BME280;42646;51.910;7.724;2023-07-16T12:53:03;100799.63;;;24.10;48.73
39265;BME280;42646;51.910;7.724;2023-07-16T12:55:35;100801.91;;;24.13;48.24
39265;BME280;42646;51.910;7.724;2023-07-16T12:58:03;100807.53;;;24.12;48.46
39265;BME280;42646;51.910;7.724;2023-07-16T13:00:33;100811.91;;;24.13;47.92
39265;BME280;42646;51.910;7.724;2023-07-16T13:03:01;100810.88;;;24.14;48.21
39265;BME280;42646;51.910;7.724;2023-07-16T13:05:30;100818.22;;;24.13;47.81